Time;durP1;ratioP1;P1;durP2;ratioP2;P2;SDS_P1;SDS_P2;PMS_P1;PMS_P2;Temp;Humidity;BMP_temperature;BMP_pressure;BME280_temperature;BME280_humidity;BME280_pressure;Samples;Min_cycle;Max_cycle;Signal;HPM_P1;HPM_P2
2021/01/15 00:00:24;;;;;;;3.95;1.52;;;;;;;16.75;48.17;102553.44;6334117;22;20023;-79
2021/01/15 00:03:17;;;;;;;1.50;1.10;;;;;;;16.73;47.96;102549.94;6332497;22;20358;-78
2021/01/15 00:05:49;;;;;;;2.15;1.13;;;;;;;16.73;48.06;102552.53;6334275;22;20030;-78
2021/01/15 00:08:53;;;;;;;2.35;1.30;;;;;;;16.73;48.03;102551.66;6309771;22;20007;-78
2021/01/15 00:11:37;;;;;;;1.98;1.20;;;;;;;16.72;48.21;102550.75;6334184;22;20075;-79
2021/01/15 00:14:06;;;;;;;2.05;1.50;;;;;;;16.71;47.91;102559.41;6333941;22;20007;-78
2021/01/15 00:16:40;;;;;;;2.75;1.45;;;;;;;16.72;48.02;102557.69;6330548;22;20010;-79
2021/01/15 00:19:37;;;;;;;2.03;1.33;;;;;;;16.72;47.96;102562.88;6333321;22;20017;-79
2021/01/15 00:22:09;;;;;;;2.42;1.48;;;;;;;16.70;47.92;102560.28;6333695;22;20006;-78
2021/01/15 00:24:35;;;;;;;2.00;1.40;;;;;;;16.71;47.81;102566.34;6307221;22;20342;-79
2021/01/15 00:32:07;;;;;;;1.70;1.40;;;;;;;16.70;47.83;102568.06;6333568;22;19936;-78
2021/01/15 00:34:44;;;;;;;1.77;1.17;;;;;;;16.71;47.96;102574.13;6331791;22;20422;-78
2021/01/15 00:40:31;;;;;;;1.70;1.25;;;;;;;16.67;47.66;102571.44;6336679;22;20046;-79
2021/01/15 00:43:18;;;;;;;2.50;1.60;;;;;;;16.69;47.90;102581.91;6285598;22;20023;-80
2021/01/15 00:54:35;;;;;;;1.60;1.30;;;;;;;16.65;47.75;102593.06;6330975;22;20029;-78
2021/01/15 00:57:05;;;;;;;2.63;1.42;;;;;;;16.66;47.56;102593.09;6285103;22;20039;-79
2021/01/15 00:59:49;;;;;;;2.00;1.48;;;;;;;16.66;47.49;102590.50;6258756;22;20497;-80
2021/01/15 01:02:16;;;;;;;1.80;1.40;;;;;;;16.68;47.45;102595.75;6217618;22;20031;-79
2021/01/15 01:04:43;;;;;;;2.30;1.55;;;;;;;16.68;47.49;102600.94;6233489;22;20008;-80
2021/01/15 01:07:11;;;;;;;2.22;1.30;;;;;;;16.66;47.55;102607.84;6226587;22;20435;-78
2021/01/15 01:09:42;;;;;;;1.40;1.20;;;;;;;16.66;47.71;102608.72;6253548;22;20011;-78
2021/01/15 01:12:16;;;;;;;2.55;1.17;;;;;;;16.66;47.56;102620.84;6280754;22;20008;-79
2021/01/15 01:15:01;;;;;;;;;;;;;;;16.66;47.47;102620.84;6254958;22;20087;-79
2021/01/15 01:17:32;;;;;;;1.80;1.40;;;;;;;16.65;47.29;102621.66;6254659;22;19961;-80
2021/01/15 01:20:09;;;;;;;2.08;1.40;;;;;;;16.65;47.46;102622.53;6281349;22;20004;-78
2021/01/15 01:22:35;;;;;;;2.92;1.40;;;;;;;16.65;47.36;102630.31;6232134;22;20019;-79
2021/01/15 01:25:00;;;;;;;2.00;1.27;;;;;;;16.64;47.35;102641.59;6293134;22;20000;-80
2021/01/15 01:27:26;;;;;;;2.33;1.45;;;;;;;16.63;47.33;102637.22;6310611;22;20011;-80
2021/01/15 01:29:51;;;;;;;2.33;1.50;;;;;;;16.64;47.80;102640.72;6312076;22;20008;-80
2021/01/15 01:34:52;;;;;;;2.22;1.33;;;;;;;16.62;47.32;102642.41;6309405;22;20030;-78
2021/01/15 01:37:19;;;;;;;4.32;1.40;;;;;;;16.62;47.36;102648.47;6258448;22;20501;-79
2021/01/15 01:39:45;;;;;;;2.13;1.35;;;;;;;16.63;47.10;102662.34;6310925;22;20567;-78
2021/01/15 01:42:31;;;;;;;2.47;1.40;;;;;;;16.64;47.24;102664.09;6282498;22;20003;-78
2021/01/15 01:44:56;;;;;;;2.28;1.50;;;;;;;16.62;47.40;102664.06;6287981;22;20003;-80
2021/01/15 01:47:22;;;;;;;2.15;1.60;;;;;;;16.62;47.10;102671.00;6284911;22;20009;-80
2021/01/15 01:49:50;;;;;;;2.28;1.50;;;;;;;16.62;47.35;102671.84;6311431;22;20003;-80
2021/01/15 01:52:17;;;;;;;2.17;1.50;;;;;;;16.62;47.18;102676.19;6283099;22;20008;-78
2021/01/15 01:54:46;;;;;;;3.60;1.40;;;;;;;16.62;47.13;102683.97;6308393;22;20007;-78
2021/01/15 01:57:14;;;;;;;1.30;1.20;;;;;;;16.61;47.02;102680.50;6284582;22;20007;-80
2021/01/15 01:59:41;;;;;;;2.00;1.40;;;;;;;16.61;47.17;102685.72;6282261;22;20013;-78
2021/01/15 02:02:09;;;;;;;1.90;1.45;;;;;;;16.61;47.08;102679.63;6256937;22;20008;-78
2021/01/15 02:04:35;;;;;;;2.33;1.50;;;;;;;16.60;47.21;102683.06;6255929;22;20007;-79
2021/01/15 02:07:00;;;;;;;1.63;1.38;;;;;;;16.60;47.26;102690.88;6309434;22;20004;-79
2021/01/15 02:09:52;;;;;;;1.90;1.20;;;;;;;16.60;47.12;102688.25;6309921;22;20438;-79
2021/01/15 02:12:30;;;;;;;2.25;1.50;;;;;;;16.60;47.00;102690.88;6309726;22;20067;-79
2021/01/15 02:15:11;;;;;;;1.60;1.33;;;;;;;16.58;47.07;102693.41;6309775;22;20003;-79
2021/01/15 02:17:46;;;;;;;1.80;1.33;;;;;;;16.60;47.20;102696.06;6308628;22;20010;-79
2021/01/15 02:20:36;;;;;;;1.65;1.30;;;;;;;16.58;47.05;102697.75;6309937;22;20372;-79
2021/01/15 02:23:34;;;;;;;1.95;1.30;;;;;;;16.58;46.91;102697.75;6309843;22;20041;-78
2021/01/15 02:26:05;;;;;;;1.50;1.30;;;;;;;16.58;47.20;102697.75;6251767;22;20008;-79
2021/01/15 02:28:51;;;;;;;1.48;1.30;;;;;;;16.56;47.09;102705.50;6281980;22;20010;-79
2021/01/15 02:31:44;;;;;;;1.90;1.40;;;;;;;16.57;47.11;102708.97;6281240;22;20003;-80
2021/01/15 02:34:31;;;;;;;1.95;1.30;;;;;;;16.56;47.06;102705.50;6283626;22;20007;-79
2021/01/15 02:37:07;;;;;;;3.55;1.42;;;;;;;16.57;46.88;102703.78;6256416;22;20008;-80
2021/01/15 02:39:51;;;;;;;2.10;1.40;;;;;;;16.56;47.01;102712.41;6255952;22;20004;-80
2021/01/15 02:42:17;;;;;;;1.88;1.30;;;;;;;16.56;47.05;102704.63;6284595;22;20051;-80
2021/01/15 02:44:48;;;;;;;1.70;1.38;;;;;;;16.56;47.13;102700.28;6259183;22;20114;-80
2021/01/15 02:47:28;;;;;;;2.20;1.50;;;;;;;16.55;47.08;102705.44;6251857;22;20652;-78
2021/01/15 02:49:55;;;;;;;1.65;1.30;;;;;;;16.55;47.05;102710.66;6279294;22;20008;-79
2021/01/15 02:52:22;;;;;;;2.05;1.38;;;;;;;16.52;46.72;102702.78;6267664;22;20027;-80
2021/01/15 02:55:24;;;;;;;1.95;1.45;;;;;;;16.54;46.91;102709.78;6284674;22;20023;-80
2021/01/15 03:08:48;;;;;;;1.65;1.35;;;;;;;16.51;46.77;102720.09;6330210;22;20018;-78
2021/01/15 03:16:28;;;;;;;2.22;1.58;;;;;;;16.50;46.64;102723.53;6333585;22;20018;-79
2021/01/15 03:19:20;;;;;;;1.75;1.23;;;;;;;16.51;46.76;102729.63;6310566;22;20018;-77
2021/01/15 03:22:28;;;;;;;2.30;1.50;;;;;;;16.51;46.89;102730.50;6309326;22;20014;-80
2021/01/15 03:28:21;;;;;;;1.80;1.30;;;;;;;16.51;46.68;102740.03;6242745;23;20011;-79
2021/01/15 03:36:04;;;;;;;1.60;1.10;;;;;;;16.48;46.72;102740.81;6329888;22;20024;-76
2021/01/15 03:38:32;;;;;;;1.45;1.35;;;;;;;16.48;46.70;102746.00;6338721;22;20045;-79
2021/01/15 03:44:36;;;;;;;1.80;1.38;;;;;;;16.51;46.81;102743.50;6364036;22;20025;-77
2021/01/15 03:50:26;;;;;;;1.77;1.40;;;;;;;16.52;46.59;102739.16;6339032;22;20030;-77
2021/01/15 03:55:37;;;;;;;;;;;;;;;16.53;46.90;102752.22;6328349;22;20049;-78
2021/01/15 03:58:12;;;;;;;2.55;1.65;;;;;;;16.55;46.61;102752.22;6308928;22;19906;-78
2021/01/15 04:06:10;;;;;;;1.67;1.42;;;;;;;16.53;47.23;102756.53;6336134;22;20063;-79
2021/01/15 04:08:37;;;;;;;2.20;1.40;;;;;;;16.57;46.85;102758.34;6284369;22;20008;-79
2021/01/15 04:11:40;;;;;;;1.60;1.30;;;;;;;16.56;46.82;102761.81;6326411;22;20019;-77
2021/01/15 04:16:38;;;;;;;1.90;1.33;;;;;;;16.56;46.66;102756.59;6244202;22;20068;-76
2021/01/15 04:24:14;;;;;;;1.15;1.02;;;;;;;16.58;47.26;102742.81;6335684;22;20003;-77
2021/01/15 04:26:41;;;;;;;1.27;1.17;;;;;;;16.56;46.90;102752.28;6304681;22;20019;-77
2021/01/15 04:34:45;;;;;;;1.70;1.35;;;;;;;16.58;46.78;102768.78;6301452;22;20066;-79
2021/01/15 04:37:13;;;;;;;1.40;1.10;;;;;;;16.58;46.78;102767.94;6270015;22;20000;-81
2021/01/15 04:39:47;;;;;;;2.38;1.40;;;;;;;16.55;46.92;102767.81;6231521;22;20004;-82
2021/01/15 04:45:06;;;;;;;1.65;1.30;;;;;;;16.58;46.84;102771.41;6368470;22;20010;-79
2021/01/15 04:51:16;;;;;;;2.17;1.40;;;;;;;16.58;46.88;102774.00;6350721;22;20026;-79
2021/01/15 04:54:04;;;;;;;1.58;1.30;;;;;;;16.58;46.87;102776.59;6301575;22;20019;-79
2021/01/15 04:56:55;;;;;;;1.85;1.30;;;;;;;16.58;46.80;102775.72;6274318;22;20058;-79
2021/01/15 04:59:51;;;;;;;1.70;1.20;;;;;;;16.58;46.86;102779.19;6272396;22;20001;-83
2021/01/15 05:02:37;;;;;;;2.15;1.15;;;;;;;16.60;46.93;102781.84;6244307;22;20091;-79
2021/01/15 05:05:32;;;;;;;1.70;1.30;;;;;;;16.59;46.83;102778.38;6273092;22;20015;-79
2021/01/15 05:17:34;;;;;;;1.55;1.30;;;;;;;16.58;46.87;102787.00;6293593;22;20031;-80
2021/01/15 05:20:02;;;;;;;2.55;1.15;;;;;;;16.60;46.97;102800.91;6254923;22;20011;-79
2021/01/15 05:23:11;;;;;;;1.50;1.40;;;;;;;16.60;46.87;102795.72;6279891;22;20004;-80
2021/01/15 05:28:15;;;;;;;1.00;0.90;;;;;;;16.60;47.08;102806.09;6335779;22;20058;-79
2021/01/15 05:37:27;;;;;;;1.35;1.15;;;;;;;16.61;46.92;102818.28;6326423;22;20419;-78
2021/01/15 05:39:53;;;;;;;1.77;1.30;;;;;;;16.62;46.85;102822.63;6236747;22;20012;-76
2021/01/15 05:42:19;;;;;;;1.50;1.20;;;;;;;16.62;46.92;102825.22;6239667;22;20003;-76
2021/01/15 05:44:45;;;;;;;1.15;1.05;;;;;;;16.65;46.81;102824.41;6294786;22;20014;-76
2021/01/15 05:47:13;;;;;;;1.60;1.23;;;;;;;16.65;46.83;102825.28;6297355;22;20067;-76
2021/01/15 05:49:58;;;;;;;1.20;1.10;;;;;;;16.67;46.85;102830.53;6334462;22;20038;-80
2021/01/15 05:52:36;;;;;;;1.50;1.17;;;;;;;16.69;46.76;102827.97;6335364;22;19994;-78
2021/01/15 05:55:12;;;;;;;1.30;1.00;;;;;;;16.70;46.79;102837.53;6334772;22;20006;-81
2021/01/15 05:57:42;;;;;;;1.80;1.63;;;;;;;16.70;46.68;102840.13;6281875;22;19997;-79
2021/01/15 06:03:23;;;;;;;1.30;1.00;;;;;;;16.72;46.64;102844.53;6299129;22;20070;-79
2021/01/15 06:08:40;;;;;;;1.55;1.00;;;;;;;16.71;46.55;102853.19;6335448;22;20019;-82
2021/01/15 06:11:22;;;;;;;1.48;1.10;;;;;;;16.79;46.69;102850.78;6283158;22;20018;-80
2021/01/15 06:14:03;;;;;;;3.42;1.20;;;;;;;16.86;46.82;102850.13;6256635;22;20058;-80
2021/01/15 06:20:02;;;;;;;3.88;1.30;;;;;;;16.66;47.20;102858.25;6277453;22;20058;-78
2021/01/15 06:22:27;;;;;;;1.92;1.30;;;;;;;16.65;47.08;102860.81;6338687;22;20022;-80
2021/01/15 06:25:20;;;;;;;3.63;1.20;;;;;;;16.62;47.42;102853.81;6340310;22;19991;-79
2021/01/15 06:27:46;;;;;;;4.63;1.40;;;;;;;16.60;47.29;102859.81;6337805;22;20007;-77
2021/01/15 06:30:18;;;;;;;3.10;1.50;;;;;;;16.60;47.24;102863.28;6283375;22;20007;-81
2021/01/15 06:35:39;;;;;;;2.75;1.30;;;;;;;16.59;47.11;102861.53;6336287;22;20071;-79
2021/01/15 06:38:05;;;;;;;3.33;1.30;;;;;;;16.57;46.96;102875.31;6296020;22;20060;-76
2021/01/15 06:40:52;;;;;;;1.95;1.20;;;;;;;16.59;47.15;102871.03;6273950;22;19992;-79
2021/01/15 06:43:27;;;;;;;2.80;1.20;;;;;;;16.56;47.04;102870.97;6256095;22;20035;-77
2021/01/15 06:48:33;;;;;;;4.15;1.40;;;;;;;16.54;47.05;102870.91;6304786;22;20006;-79
2021/01/15 06:51:00;;;;;;;3.72;1.48;;;;;;;16.57;46.81;102880.50;6331979;22;20011;-80
2021/01/15 06:53:27;;;;;;;2.03;1.38;;;;;;;16.56;46.75;102877.03;6334589;22;19999;-79
2021/01/15 06:56:04;;;;;;;4.53;1.30;;;;;;;16.54;47.14;102875.25;6305131;22;20055;-79
2021/01/15 06:58:36;;;;;;;3.13;1.40;;;;;;;16.56;46.61;102886.56;6265337;22;20020;-81
2021/01/15 07:01:21;;;;;;;3.35;1.50;;;;;;;16.56;46.71;102890.03;6288949;22;20075;-80
2021/01/15 07:04:24;;;;;;;1.73;1.30;;;;;;;16.56;46.73;102892.63;6252752;22;20008;-79
2021/01/15 07:07:08;;;;;;;2.40;1.40;;;;;;;16.56;46.80;102894.34;6268652;22;20008;-80
2021/01/15 07:09:34;;;;;;;3.08;1.45;;;;;;;16.56;46.81;102892.63;6245836;23;20020;-79
2021/01/15 07:12:06;;;;;;;1.92;1.50;;;;;;;16.56;46.74;102894.34;6246727;23;20011;-79
2021/01/15 07:14:54;;;;;;;2.17;1.58;;;;;;;16.54;46.52;102891.72;6273534;22;20012;-81
2021/01/15 07:17:30;;;;;;;2.35;1.30;;;;;;;16.56;46.54;102903.03;6272886;23;20008;-79
2021/01/15 07:20:04;;;;;;;2.85;1.30;;;;;;;16.55;46.63;102902.97;6245695;23;20000;-80
2021/01/15 07:22:48;;;;;;;1.65;1.27;;;;;;;16.56;46.45;102915.16;6228360;23;20000;-78
2021/01/15 07:25:14;;;;;;;1.80;1.25;;;;;;;16.53;46.45;102915.97;6262397;22;20015;-81
2021/01/15 07:27:41;;;;;;;1.52;1.30;;;;;;;16.55;46.45;102916.88;6220402;23;20008;-79
2021/01/15 07:30:11;;;;;;;4.82;1.48;;;;;;;16.55;46.45;102916.88;6222261;23;20083;-79
2021/01/15 07:32:37;;;;;;;1.50;1.20;;;;;;;16.55;46.51;102922.06;6238098;23;20039;-79
2021/01/15 07:35:03;;;;;;;2.13;1.35;;;;;;;16.57;46.26;102922.09;6206432;23;20011;-79
2021/01/15 07:37:30;;;;;;;1.75;1.20;;;;;;;16.55;46.39;102929.88;6232617;23;20415;-79
2021/01/15 07:40:04;;;;;;;3.10;1.48;;;;;;;16.55;46.63;102935.06;6234039;23;20012;-79
2021/01/15 07:42:48;;;;;;;1.85;1.30;;;;;;;16.56;46.37;102933.34;6234174;23;20004;-79
2021/01/15 07:45:22;;;;;;;2.80;1.48;;;;;;;16.55;46.46;102937.66;6239183;23;20007;-79
2021/01/15 07:47:53;;;;;;;1.60;1.20;;;;;;;16.55;46.22;102936.75;6261822;23;20032;-79
2021/01/15 07:50:30;;;;;;;2.85;1.40;;;;;;;16.54;46.28;102942.81;6251286;23;20066;-78
2021/01/15 07:53:12;;;;;;;2.55;1.48;;;;;;;16.53;46.06;102941.94;6251322;23;20006;-78
2021/01/15 07:55:57;;;;;;;2.65;1.20;;;;;;;16.53;46.22;102949.75;6200126;23;20312;-78
2021/01/15 07:58:25;;;;;;;1.80;1.30;;;;;;;16.53;46.17;102947.16;6251957;23;20066;-78
2021/01/15 08:00:51;;;;;;;1.80;1.50;;;;;;;16.54;46.23;102950.63;6224226;23;20424;-78
2021/01/15 08:03:17;;;;;;;2.15;1.23;;;;;;;16.54;46.30;102951.50;6250812;23;20054;-78
2021/01/15 08:05:44;;;;;;;1.85;1.30;;;;;;;16.54;46.42;102959.28;6223616;23;20109;-78
2021/01/15 08:08:16;;;;;;;2.08;1.33;;;;;;;16.55;46.11;102961.06;6249305;22;20015;-80
2021/01/15 08:10:44;;;;;;;1.88;1.25;;;;;;;16.54;46.15;102959.28;6229303;22;20023;-79
2021/01/15 08:13:42;;;;;;;2.17;1.17;;;;;;;16.55;46.17;102957.56;6254421;22;20010;-78
2021/01/15 08:18:34;;;;;;;1.90;1.42;;;;;;;16.55;46.15;102965.34;6304711;22;20095;-77
2021/01/15 08:21:03;;;;;;;2.05;1.42;;;;;;;16.55;46.06;102968.88;6283818;22;20023;-76
2021/01/15 08:23:30;;;;;;;2.05;1.40;;;;;;;16.56;46.19;102981.00;6313335;22;20037;-77
2021/01/15 08:26:23;;;;;;;2.95;1.45;;;;;;;16.58;46.23;102981.94;6311743;22;20012;-77
2021/01/15 08:28:50;;;;;;;2.70;1.50;;;;;;;16.58;45.92;102979.34;6311934;22;20137;-76
2021/01/15 08:34:11;;;;;;;1.67;1.25;;;;;;;16.57;46.02;102974.09;6318358;22;20011;-77
2021/01/15 08:36:59;;;;;;;1.77;1.38;;;;;;;16.56;45.96;102981.00;6312044;22;20090;-76
2021/01/15 08:39:24;;;;;;;2.33;1.45;;;;;;;16.59;46.05;102982.81;6344653;22;20005;-78
2021/01/15 08:41:55;;;;;;;2.05;1.60;;;;;;;16.58;45.68;102978.47;6288493;22;20317;-79
2021/01/15 08:44:34;;;;;;;1.95;1.30;;;;;;;16.59;45.80;102981.13;6284166;22;20011;-78
2021/01/15 08:47:02;;;;;;;2.30;1.60;;;;;;;16.60;45.99;102982.88;6260516;22;20019;-79
2021/01/15 08:49:28;;;;;;;3.33;1.30;;;;;;;16.61;46.19;102978.53;6310805;22;19999;-77
2021/01/15 08:51:58;;;;;;;2.28;1.40;;;;;;;16.61;45.79;102988.94;6256301;22;20000;-77
2021/01/15 08:54:24;;;;;;;2.28;1.40;;;;;;;16.61;45.94;102991.53;6310207;22;20003;-78
2021/01/15 08:56:57;;;;;;;2.78;1.48;;;;;;;16.61;45.87;102989.84;6255508;22;20046;-77
2021/01/15 08:59:40;;;;;;;2.58;1.50;;;;;;;16.61;45.85;102991.53;6309744;22;20004;-78
2021/01/15 09:04:43;;;;;;;2.20;1.48;;;;;;;16.63;45.85;102995.06;6309180;22;20035;-78
2021/01/15 09:07:11;;;;;;;1.90;1.40;;;;;;;16.62;45.79;102999.38;6310763;22;20098;-78
2021/01/15 09:09:43;;;;;;;2.00;1.40;;;;;;;16.64;45.83;102999.44;6258123;22;20014;-78
2021/01/15 09:12:09;;;;;;;2.03;1.40;;;;;;;16.65;45.74;102996.00;6283333;22;20086;-77
2021/01/15 09:14:36;;;;;;;3.22;1.30;;;;;;;16.64;45.65;103000.31;6253218;22;20099;-79
2021/01/15 09:17:04;;;;;;;1.85;1.38;;;;;;;16.64;45.80;103008.13;6253889;22;20106;-79
2021/01/15 09:19:31;;;;;;;1.73;1.50;;;;;;;16.63;45.93;102995.94;6279050;22;20004;-78
2021/01/15 09:22:00;;;;;;;1.80;1.33;;;;;;;16.65;45.78;103001.19;6280526;22;20004;-78
2021/01/15 09:24:28;;;;;;;2.05;1.30;;;;;;;16.64;45.36;103002.91;6252783;22;20513;-78
2021/01/15 09:26:58;;;;;;;1.92;1.40;;;;;;;16.65;45.73;103011.59;6281017;22;20010;-79
2021/01/15 09:29:24;;;;;;;2.40;1.60;;;;;;;16.64;45.92;103015.91;6255717;22;20089;-79
2021/01/15 09:31:51;;;;;;;1.90;1.40;;;;;;;16.63;45.65;103023.66;6284696;22;19999;-78
2021/01/15 09:34:19;;;;;;;2.50;1.65;;;;;;;16.62;45.54;103027.97;6283564;22;20012;-79
2021/01/15 09:36:46;;;;;;;2.08;1.60;;;;;;;16.63;45.61;103034.06;6256755;22;20077;-79
2021/01/15 09:39:13;;;;;;;2.13;1.55;;;;;;;16.62;45.71;103038.38;6285157;22;20000;-80
2021/01/15 09:41:46;;;;;;;2.72;1.73;;;;;;;16.62;45.65;103038.38;6231681;22;20004;-79
2021/01/15 09:44:12;;;;;;;3.20;1.60;;;;;;;16.61;45.70;103041.84;6281198;22;19996;-78
2021/01/15 09:46:38;;;;;;;2.70;1.67;;;;;;;16.61;45.87;103044.44;6278455;22;20020;-78
2021/01/15 09:49:03;;;;;;;2.50;1.70;;;;;;;16.61;45.78;103043.53;6252494;22;20082;-79
2021/01/15 09:51:32;;;;;;;2.10;1.50;;;;;;;16.61;45.58;103046.13;6252928;22;20388;-80
2021/01/15 09:53:58;;;;;;;2.35;1.58;;;;;;;16.61;45.83;103052.22;6254979;22;20067;-78
2021/01/15 09:56:41;;;;;;;2.22;1.60;;;;;;;16.61;45.92;103062.63;6254326;22;20000;-80
2021/01/15 10:01:47;;;;;;;2.33;1.73;;;;;;;16.61;45.62;103067.81;6288794;22;20443;-79
2021/01/15 10:04:15;;;;;;;2.50;1.83;;;;;;;16.60;45.52;103060.84;6285544;22;20034;-80
2021/01/15 10:06:43;;;;;;;2.20;1.73;;;;;;;16.61;45.63;103075.63;6259457;22;20007;-79
2021/01/15 10:09:10;;;;;;;1.92;1.45;;;;;;;16.61;45.53;103066.91;6279946;22;20020;-80
2021/01/15 10:11:45;;;;;;;2.10;1.80;;;;;;;16.60;45.59;103068.66;6255302;22;20312;-79
2021/01/15 10:14:13;;;;;;;2.35;1.63;;;;;;;16.61;45.67;103073.03;6231582;22;20000;-80
2021/01/15 10:16:42;;;;;;;1.70;1.40;;;;;;;16.60;45.69;103070.38;6254911;22;20015;-79
2021/01/15 10:19:09;;;;;;;3.58;1.77;;;;;;;16.60;45.40;103071.25;6284180;22;20012;-80
2021/01/15 10:21:39;;;;;;;2.17;1.65;;;;;;;16.61;45.63;103075.63;6255535;22;20056;-79
2021/01/15 10:24:10;;;;;;;2.03;1.52;;;;;;;16.62;45.51;103079.09;6283108;22;19996;-80
2021/01/15 10:26:43;;;;;;;3.42;1.70;;;;;;;16.61;45.54;103087.72;6249869;22;20019;-80
2021/01/15 10:29:28;;;;;;;1.73;1.30;;;;;;;16.61;45.60;103086.03;6260340;22;20014;-80
2021/01/15 10:34:20;;;;;;;2.40;1.60;;;;;;;16.58;45.64;103082.44;6317267;22;20054;-82
2021/01/15 10:36:49;;;;;;;2.25;1.60;;;;;;;16.59;45.53;103085.09;6292896;22;20306;-78
2021/01/15 10:39:15;;;;;;;2.50;1.48;;;;;;;16.60;45.51;103083.38;6229125;22;20010;-78
2021/01/15 10:41:45;;;;;;;2.15;1.67;;;;;;;16.60;45.47;103089.44;6250019;22;20015;-78
2021/01/15 10:44:14;;;;;;;2.50;1.70;;;;;;;16.59;45.65;103087.69;6251592;22;20073;-78
2021/01/15 10:46:50;;;;;;;2.00;1.52;;;;;;;16.60;45.43;103086.84;6279560;22;20296;-78
2021/01/15 10:49:17;;;;;;;2.05;1.83;;;;;;;16.59;45.31;103082.50;6252988;22;20000;-79
2021/01/15 10:51:48;;;;;;;1.90;1.50;;;;;;;16.59;45.49;103092.88;6251693;22;20004;-78
2021/01/15 10:54:16;;;;;;;2.72;1.70;;;;;;;16.60;45.47;103097.25;6279795;22;20000;-79
2021/01/15 10:56:43;;;;;;;2.33;1.83;;;;;;;16.59;45.28;103094.59;6279848;22;20011;-79
2021/01/15 10:59:09;;;;;;;2.42;1.70;;;;;;;16.59;45.48;103094.59;6251486;22;20008;-80
2021/01/15 11:01:45;;;;;;;2.53;1.63;;;;;;;16.59;45.53;103100.69;6280705;22;20350;-79
2021/01/15 11:04:12;;;;;;;3.88;1.70;;;;;;;16.78;45.22;103089.09;6262679;22;20000;-79
2021/01/15 11:06:46;;;;;;;1.85;1.50;;;;;;;16.91;45.03;103090.38;6289597;22;20106;-79
2021/01/15 11:09:16;;;;;;;2.05;1.70;;;;;;;16.91;45.01;103090.38;6287496;22;20000;-81
2021/01/15 11:11:48;;;;;;;3.03;2.00;;;;;;;16.91;45.21;103087.78;6285283;22;20007;-77
2021/01/15 11:14:14;;;;;;;5.13;2.00;;;;;;;16.93;45.30;103086.09;6260074;22;20004;-77
2021/01/15 11:16:41;;;;;;;6.07;2.10;;;;;;;16.94;45.66;103086.97;6270748;22;20003;-78
2021/01/15 11:19:06;;;;;;;8.05;2.40;;;;;;;16.95;45.99;103094.84;6272092;22;20008;-76
2021/01/15 11:24:07;;;;;;;6.03;2.20;;;;;;;16.98;46.46;103091.44;6326548;22;20040;-77
2021/01/15 11:26:37;;;;;;;4.85;2.30;;;;;;;17.01;47.17;103097.63;6234214;23;20007;-77
2021/01/15 11:31:55;;;;;;;7.18;2.30;;;;;;;17.05;46.99;103093.41;6235296;23;20052;-78
2021/01/15 11:34:22;;;;;;;5.95;2.78;;;;;;;17.06;47.40;103083.00;6201610;22;20023;-77
2021/01/15 11:37:27;;;;;;;13.88;5.13;;;;;;;17.14;48.25;103088.44;6299863;22;20007;-77
2021/01/15 11:43:15;;;;;;;13.23;5.05;;;;;;;17.22;48.86;103086.03;6322204;22;20022;-77
2021/01/15 11:48:28;;;;;;;13.05;4.50;;;;;;;17.22;49.06;103088.66;6325343;22;20029;-77
2021/01/15 11:51:01;;;;;;;15.07;5.07;;;;;;;17.19;48.35;103086.84;6306629;22;20059;-78
2021/01/15 12:10:29;;;;;;;8.98;3.50;;;;;;;17.27;48.03;103074.94;6302035;22;20026;-77
2021/01/15 12:15:28;;;;;;;7.47;3.30;;;;;;;17.26;47.77;103067.94;6241381;23;20024;-78
2021/01/15 12:17:59;;;;;;;9.95;3.25;;;;;;;17.27;47.58;103068.84;6214814;23;19996;-75
2021/01/15 12:20:51;;;;;;;7.07;3.03;;;;;;;17.28;47.70;103074.09;6189397;23;20048;-76
2021/01/15 12:23:18;;;;;;;7.38;2.83;;;;;;;17.28;47.27;103078.41;6241425;23;20027;-77
2021/01/15 12:25:46;;;;;;;6.47;3.00;;;;;;;17.27;47.27;103071.47;6321790;22;20019;-77
2021/01/15 12:30:50;;;;;;;7.97;2.72;;;;;;;17.25;47.20;103068.81;6334123;22;20005;-77
2021/01/15 12:33:32;;;;;;;9.02;2.90;;;;;;;17.28;47.16;103071.47;6325285;22;20021;-79
2021/01/15 12:36:23;;;;;;;6.20;2.92;;;;;;;17.28;47.15;103070.59;6333208;22;20086;-74
2021/01/15 12:38:49;;;;;;;4.80;2.70;;;;;;;17.27;47.06;103071.47;6329654;22;20075;-75
2021/01/15 12:41:19;;;;;;;5.72;2.42;;;;;;;17.28;46.87;103070.59;6306063;22;20067;-75
2021/01/15 12:46:40;;;;;;;5.97;2.53;;;;;;;17.30;46.97;103070.66;6270185;22;20020;-76
2021/01/15 12:49:14;;;;;;;6.60;2.70;;;;;;;17.27;46.75;103074.06;6256928;22;20011;-76
2021/01/15 12:51:43;;;;;;;5.07;2.47;;;;;;;17.27;46.60;103072.34;6261748;22;20042;-76
2021/01/15 13:00:47;;;;;;;4.57;2.30;;;;;;;17.28;46.57;103060.19;6332481;22;20138;-76
2021/01/15 13:07:09;;;;;;;6.03;2.33;;;;;;;17.28;46.57;103055.00;6334166;22;20014;-76
2021/01/15 13:09:36;;;;;;;5.03;2.50;;;;;;;17.28;46.29;103061.06;6270303;23;20003;-76
2021/01/15 13:17:59;;;;;;;3.47;2.08;;;;;;;17.28;46.14;103068.88;6364465;22;20037;-77
2021/01/15 13:23:19;;;;;;;4.38;2.17;;;;;;;17.32;46.20;103077.66;6306360;22;20014;-77
2021/01/15 13:25:57;;;;;;;3.70;2.10;;;;;;;17.32;46.18;103082.00;6322539;22;20015;-76
2021/01/15 13:28:23;;;;;;;5.47;2.42;;;;;;;17.32;46.07;103076.78;6325416;22;20417;-76
2021/01/15 13:31:28;;;;;;;4.63;2.20;;;;;;;17.32;46.21;103068.97;6333782;22;20062;-76
2021/01/15 13:34:00;;;;;;;3.60;2.10;;;;;;;17.31;46.00;103068.09;6367634;22;19998;-77
2021/01/15 13:36:34;;;;;;;3.63;2.08;;;;;;;17.30;45.88;103071.53;6339283;22;20036;-76
2021/01/15 13:39:17;;;;;;;2.92;1.80;;;;;;;17.35;45.87;103069.06;6366882;22;20067;-79
2021/01/15 13:41:50;;;;;;;3.15;1.80;;;;;;;17.33;45.89;103081.13;6288535;22;20079;-79
2021/01/15 13:44:34;;;;;;;3.17;1.85;;;;;;;17.34;45.92;103075.09;6186925;23;20021;-77
2021/01/15 13:47:18;;;;;;;2.38;1.70;;;;;;;17.32;45.68;103068.97;6174627;23;20032;-77
2021/01/15 13:52:20;;;;;;;3.00;2.13;;;;;;;17.32;45.65;103072.47;6261401;22;20071;-79
2021/01/15 13:55:11;;;;;;;3.63;2.10;;;;;;;17.34;45.64;103075.09;6226005;22;20020;-76
2021/01/15 13:58:15;;;;;;;3.65;1.90;;;;;;;17.32;45.54;103077.66;6305369;22;19996;-75
2021/01/15 14:03:26;;;;;;;4.13;1.63;;;;;;;17.28;45.31;103078.41;6305060;22;20024;-78
2021/01/15 14:05:52;;;;;;;3.22;1.92;;;;;;;17.26;45.64;103073.16;6249259;22;20102;-79
2021/01/15 14:08:40;;;;;;;3.28;1.90;;;;;;;17.25;45.52;103076.63;6274962;22;20080;-76
2021/01/15 14:11:08;;;;;;;3.85;2.08;;;;;;;17.24;45.55;103080.03;6291726;22;20023;-78
2021/01/15 14:16:08;;;;;;;4.10;1.90;;;;;;;17.25;45.57;103067.94;6293260;22;20023;-78
2021/01/15 14:18:59;;;;;;;3.20;1.80;;;;;;;17.28;45.40;103073.22;6254398;22;20015;-76
2021/01/15 14:23:58;;;;;;;3.30;1.73;;;;;;;17.30;45.45;103075.88;6323107;22;20022;-76
2021/01/15 14:26:25;;;;;;;4.57;1.70;;;;;;;17.30;45.62;103074.13;6267765;22;20007;-76
2021/01/15 14:28:57;;;;;;;4.13;1.88;;;;;;;17.29;45.44;103075.00;6293173;22;20063;-77
2021/01/15 14:32:02;;;;;;;3.47;1.67;;;;;;;17.30;45.13;103068.06;6300025;22;20010;-75
2021/01/15 14:37:04;;;;;;;3.58;1.85;;;;;;;17.31;44.97;103064.59;6285375;22;20077;-76
2021/01/15 14:42:29;;;;;;;2.95;1.77;;;;;;;17.31;45.37;103068.09;6289658;22;20030;-76
2021/01/15 14:45:02;;;;;;;2.70;1.80;;;;;;;17.33;45.33;103068.13;6270284;22;20029;-76
2021/01/15 14:47:42;;;;;;;3.25;1.70;;;;;;;17.31;45.02;103062.91;6265823;22;20011;-76
2021/01/15 14:50:36;;;;;;;3.45;1.70;;;;;;;17.33;45.10;103063.78;6318934;22;20006;-76
2021/01/15 14:53:02;;;;;;;2.63;1.90;;;;;;;17.32;45.17;103063.78;6276111;22;20324;-76
2021/01/15 14:55:35;;;;;;;2.88;1.70;;;;;;;17.33;44.98;103074.19;6212181;22;20418;-76
2021/01/15 14:58:03;;;;;;;3.90;1.55;;;;;;;17.31;45.21;103075.91;6260536;22;20031;-76
2021/01/15 15:00:37;;;;;;;2.28;1.40;;;;;;;17.33;45.26;103063.78;6303751;22;21463;-76
2021/01/15 15:03:05;;;;;;;2.00;1.42;;;;;;;17.33;45.09;103068.13;6234723;22;20023;-76
2021/01/15 15:05:32;;;;;;;2.28;1.40;;;;;;;17.41;44.95;103069.22;6268785;22;20066;-77
2021/01/15 15:07:58;;;;;;;3.92;1.65;;;;;;;17.42;45.08;103061.47;6201678;23;20360;-75
